sensor_id;sensor_type;location;lat;lon;timestamp;P1;durP1;ratioP1;P2;durP2;ratioP2
22320;SDS011;11328;53.928;18.522;2023-03-14T00:03:43;19.15;;;9.75;;
22320;SDS011;11328;53.928;18.522;2023-03-14T00:06:10;16.65;;;9.23;;
22320;SDS011;11328;53.928;18.522;2023-03-14T00:08:40;18.90;;;11.35;;
22320;SDS011;11328;53.928;18.522;2023-03-14T00:11:09;18.63;;;10.02;;
22320;SDS011;11328;53.928;18.522;2023-03-14T00:13:46;22.52;;;11.63;;
22320;SDS011;11328;53.928;18.522;2023-03-14T00:16:14;22.23;;;11.80;;
22320;SDS011;11328;53.928;18.522;2023-03-14T00:18:41;18.75;;;9.60;;
22320;SDS011;11328;53.928;18.522;2023-03-14T00:21:09;18.10;;;10.07;;
22320;SDS011;11328;53.928;18.522;2023-03-14T00:23:38;18.58;;;9.20;;
22320;SDS011;11328;53.928;18.522;2023-03-14T00:26:14;19.88;;;10.25;;
22320;SDS011;11328;53.928;18.522;2023-03-14T00:28:44;18.20;;;10.07;;
22320;SDS011;11328;53.928;18.522;2023-03-14T00:31:12;18.73;;;10.80;;
22320;SDS011;11328;53.928;18.522;2023-03-14T00:33:43;14.95;;;8.77;;
22320;SDS011;11328;53.928;18.522;2023-03-14T00:36:15;19.02;;;10.20;;
22320;SDS011;11328;53.928;18.522;2023-03-14T00:38:44;18.95;;;9.70;;
22320;SDS011;11328;53.928;18.522;2023-03-14T00:41:14;13.95;;;8.20;;
22320;SDS011;11328;53.928;18.522;2023-03-14T00:43:48;16.73;;;9.55;;
22320;SDS011;11328;53.928;18.522;2023-03-14T00:46:16;14.50;;;8.52;;
22320;SDS011;11328;53.928;18.522;2023-03-14T00:48:46;13.63;;;8.70;;
22320;SDS011;11328;53.928;18.522;2023-03-14T00:51:13;15.27;;;8.45;;
22320;SDS011;11328;53.928;18.522;2023-03-14T00:53:41;16.88;;;9.77;;
22320;SDS011;11328;53.928;18.522;2023-03-14T00:56:10;15.02;;;8.43;;
22320;SDS011;11328;53.928;18.522;2023-03-14T00:58:38;14.48;;;7.82;;
22320;SDS011;11328;53.928;18.522;2023-03-14T01:01:07;16.30;;;8.57;;
22320;SDS011;11328;53.928;18.522;2023-03-14T01:03:36;15.00;;;8.43;;
22320;SDS011;11328;53.928;18.522;2023-03-14T01:08:46;16.65;;;8.27;;
22320;SDS011;11328;53.928;18.522;2023-03-14T01:11:14;14.75;;;8.00;;
22320;SDS011;11328;53.928;18.522;2023-03-14T01:13:49;14.07;;;7.07;;
22320;SDS011;11328;53.928;18.522;2023-03-14T01:16:17;13.85;;;7.85;;
22320;SDS011;11328;53.928;18.522;2023-03-14T01:18:46;16.10;;;8.52;;
22320;SDS011;11328;53.928;18.522;2023-03-14T01:21:24;15.98;;;8.18;;
22320;SDS011;11328;53.928;18.522;2023-03-14T01:23:56;12.95;;;6.63;;
22320;SDS011;11328;53.928;18.522;2023-03-14T01:26:26;13.75;;;7.78;;
22320;SDS011;11328;53.928;18.522;2023-03-14T01:28:56;16.45;;;8.63;;
22320;SDS011;11328;53.928;18.522;2023-03-14T01:31:24;14.20;;;6.85;;
22320;SDS011;11328;53.928;18.522;2023-03-14T01:33:52;14.02;;;7.00;;
22320;SDS011;11328;53.928;18.522;2023-03-14T01:36:19;12.25;;;6.40;;
22320;SDS011;11328;53.928;18.522;2023-03-14T01:38:46;13.45;;;7.47;;
22320;SDS011;11328;53.928;18.522;2023-03-14T01:41:14;18.55;;;9.30;;
22320;SDS011;11328;53.928;18.522;2023-03-14T01:43:48;17.33;;;6.80;;
22320;SDS011;11328;53.928;18.522;2023-03-14T01:46:21;16.85;;;7.53;;
22320;SDS011;11328;53.928;18.522;2023-03-14T01:55:09;16.73;;;7.45;;
22320;SDS011;11328;53.928;18.522;2023-03-14T01:57:53;12.30;;;6.82;;
22320;SDS011;11328;53.928;18.522;2023-03-14T02:00:26;14.80;;;7.47;;
22320;SDS011;11328;53.928;18.522;2023-03-14T02:02:55;10.30;;;5.75;;
22320;SDS011;11328;53.928;18.522;2023-03-14T02:05:38;14.32;;;7.25;;
22320;SDS011;11328;53.928;18.522;2023-03-14T02:08:10;15.40;;;7.85;;
22320;SDS011;11328;53.928;18.522;2023-03-14T02:10:41;13.45;;;6.68;;
22320;SDS011;11328;53.928;18.522;2023-03-14T02:13:12;16.27;;;7.23;;
22320;SDS011;11328;53.928;18.522;2023-03-14T02:15:44;11.05;;;5.60;;
22320;SDS011;11328;53.928;18.522;2023-03-14T02:18:11;10.25;;;5.63;;
22320;SDS011;11328;53.928;18.522;2023-03-14T02:23:10;12.05;;;6.38;;
22320;SDS011;11328;53.928;18.522;2023-03-14T02:25:48;11.40;;;5.93;;
22320;SDS011;11328;53.928;18.522;2023-03-14T02:28:30;13.52;;;6.00;;
22320;SDS011;11328;53.928;18.522;2023-03-14T02:30:57;10.48;;;5.40;;
22320;SDS011;11328;53.928;18.522;2023-03-14T02:33:24;11.63;;;6.25;;
22320;SDS011;11328;53.928;18.522;2023-03-14T02:35:58;11.00;;;5.90;;
22320;SDS011;11328;53.928;18.522;2023-03-14T02:38:36;12.75;;;5.40;;
22320;SDS011;11328;53.928;18.522;2023-03-14T02:41:44;11.20;;;5.40;;
22320;SDS011;11328;53.928;18.522;2023-03-14T02:44:12;9.85;;;4.72;;
22320;SDS011;11328;53.928;18.522;2023-03-14T02:46:39;10.23;;;6.03;;
22320;SDS011;11328;53.928;18.522;2023-03-14T02:49:09;9.63;;;4.78;;
22320;SDS011;11328;53.928;18.522;2023-03-14T02:51:39;11.38;;;5.90;;
22320;SDS011;11328;53.928;18.522;2023-03-14T02:54:09;10.40;;;4.25;;
22320;SDS011;11328;53.928;18.522;2023-03-14T02:56:36;10.73;;;5.10;;
22320;SDS011;11328;53.928;18.522;2023-03-14T02:59:04;13.05;;;5.28;;
22320;SDS011;11328;53.928;18.522;2023-03-14T03:01:31;8.55;;;3.95;;
22320;SDS011;11328;53.928;18.522;2023-03-14T03:04:00;12.50;;;6.38;;
22320;SDS011;11328;53.928;18.522;2023-03-14T03:06:27;13.05;;;4.90;;
22320;SDS011;11328;53.928;18.522;2023-03-14T03:08:54;12.23;;;5.85;;
22320;SDS011;11328;53.928;18.522;2023-03-14T03:11:21;11.63;;;4.93;;
22320;SDS011;11328;53.928;18.522;2023-03-14T03:13:48;10.45;;;4.72;;
22320;SDS011;11328;53.928;18.522;2023-03-14T03:16:15;10.10;;;4.45;;
22320;SDS011;11328;53.928;18.522;2023-03-14T03:18:42;13.20;;;6.07;;
22320;SDS011;11328;53.928;18.522;2023-03-14T03:21:09;9.50;;;4.32;;
22320;SDS011;11328;53.928;18.522;2023-03-14T03:23:36;10.73;;;4.50;;
22320;SDS011;11328;53.928;18.522;2023-03-14T03:26:03;12.80;;;5.93;;
22320;SDS011;11328;53.928;18.522;2023-03-14T03:28:30;11.20;;;5.32;;
22320;SDS011;11328;53.928;18.522;2023-03-14T03:30:57;9.60;;;4.68;;
22320;SDS011;11328;53.928;18.522;2023-03-14T03:33:24;12.35;;;6.10;;
22320;SDS011;11328;53.928;18.522;2023-03-14T03:35:51;9.52;;;4.55;;
22320;SDS011;11328;53.928;18.522;2023-03-14T03:38:18;9.55;;;5.22;;
22320;SDS011;11328;53.928;18.522;2023-03-14T03:40:46;10.13;;;4.93;;
22320;SDS011;11328;53.928;18.522;2023-03-14T03:43:13;8.93;;;3.97;;
22320;SDS011;11328;53.928;18.522;2023-03-14T03:45:40;11.30;;;5.60;;
22320;SDS011;11328;53.928;18.522;2023-03-14T03:48:07;8.73;;;4.28;;
22320;SDS011;11328;53.928;18.522;2023-03-14T03:50:33;9.38;;;4.85;;
22320;SDS011;11328;53.928;18.522;2023-03-14T03:53:00;10.63;;;5.05;;
22320;SDS011;11328;53.928;18.522;2023-03-14T03:55:27;10.80;;;4.85;;
22320;SDS011;11328;53.928;18.522;2023-03-14T03:57:54;9.02;;;4.30;;
22320;SDS011;11328;53.928;18.522;2023-03-14T04:00:21;7.60;;;3.90;;
22320;SDS011;11328;53.928;18.522;2023-03-14T04:02:48;6.85;;;3.05;;
22320;SDS011;11328;53.928;18.522;2023-03-14T04:05:15;10.40;;;4.78;;
22320;SDS011;11328;53.928;18.522;2023-03-14T04:07:42;7.55;;;3.38;;
22320;SDS011;11328;53.928;18.522;2023-03-14T04:10:09;6.40;;;3.45;;
22320;SDS011;11328;53.928;18.522;2023-03-14T04:12:37;8.73;;;3.30;;
22320;SDS011;11328;53.928;18.522;2023-03-14T04:15:04;7.35;;;3.33;;
22320;SDS011;11328;53.928;18.522;2023-03-14T04:17:31;7.13;;;3.45;;
22320;SDS011;11328;53.928;18.522;2023-03-14T04:19:58;7.55;;;3.30;;
22320;SDS011;11328;53.928;18.522;2023-03-14T04:22:25;7.57;;;3.70;;
22320;SDS011;11328;53.928;18.522;2023-03-14T04:24:52;7.50;;;3.53;;
22320;SDS011;11328;53.928;18.522;2023-03-14T04:27:19;7.38;;;3.40;;
22320;SDS011;11328;53.928;18.522;2023-03-14T04:29:46;6.22;;;3.20;;
22320;SDS011;11328;53.928;18.522;2023-03-14T04:32:13;6.53;;;3.35;;
22320;SDS011;11328;53.928;18.522;2023-03-14T04:34:40;7.57;;;3.50;;
22320;SDS011;11328;53.928;18.522;2023-03-14T04:37:07;6.18;;;3.20;;
22320;SDS011;11328;53.928;18.522;2023-03-14T04:39:35;8.02;;;3.13;;
22320;SDS011;11328;53.928;18.522;2023-03-14T04:42:01;6.55;;;3.10;;
22320;SDS011;11328;53.928;18.522;2023-03-14T04:44:28;7.03;;;3.10;;
22320;SDS011;11328;53.928;18.522;2023-03-14T04:46:55;8.95;;;2.72;;
22320;SDS011;11328;53.928;18.522;2023-03-14T04:49:22;6.00;;;2.72;;
22320;SDS011;11328;53.928;18.522;2023-03-14T04:51:49;5.65;;;2.70;;
22320;SDS011;11328;53.928;18.522;2023-03-14T04:54:19;5.28;;;2.58;;
22320;SDS011;11328;53.928;18.522;2023-03-14T04:56:46;6.30;;;2.72;;
22320;SDS011;11328;53.928;18.522;2023-03-14T04:59:13;6.07;;;2.85;;
22320;SDS011;11328;53.928;18.522;2023-03-14T05:01:40;4.45;;;2.45;;
22320;SDS011;11328;53.928;18.522;2023-03-14T05:04:07;4.13;;;2.35;;
22320;SDS011;11328;53.928;18.522;2023-03-14T05:06:34;4.80;;;2.50;;
22320;SDS011;11328;53.928;18.522;2023-03-14T05:09:01;8.60;;;2.35;;
22320;SDS011;11328;53.928;18.522;2023-03-14T05:11:28;5.03;;;2.33;;
22320;SDS011;11328;53.928;18.522;2023-03-14T05:13:55;3.70;;;2.28;;
22320;SDS011;11328;53.928;18.522;2023-03-14T05:16:22;5.55;;;2.53;;
22320;SDS011;11328;53.928;18.522;2023-03-14T05:18:50;4.85;;;2.50;;
22320;SDS011;11328;53.928;18.522;2023-03-14T05:21:17;4.28;;;2.30;;
22320;SDS011;11328;53.928;18.522;2023-03-14T05:23:43;3.85;;;2.30;;
22320;SDS011;11328;53.928;18.522;2023-03-14T05:26:10;5.88;;;2.35;;
22320;SDS011;11328;53.928;18.522;2023-03-14T05:28:37;5.63;;;2.47;;
22320;SDS011;11328;53.928;18.522;2023-03-14T05:31:08;5.32;;;2.05;;
22320;SDS011;11328;53.928;18.522;2023-03-14T05:33:35;5.22;;;2.65;;
22320;SDS011;11328;53.928;18.522;2023-03-14T05:36:02;10.68;;;5.25;;
22320;SDS011;11328;53.928;18.522;2023-03-14T05:38:30;5.10;;;2.50;;
22320;SDS011;11328;53.928;18.522;2023-03-14T05:40:57;5.40;;;2.70;;
22320;SDS011;11328;53.928;18.522;2023-03-14T05:43:24;8.13;;;4.57;;
22320;SDS011;11328;53.928;18.522;2023-03-14T05:45:50;54.78;;;30.95;;
22320;SDS011;11328;53.928;18.522;2023-03-14T05:48:17;38.33;;;19.30;;
22320;SDS011;11328;53.928;18.522;2023-03-14T05:50:44;22.73;;;10.25;;
22320;SDS011;11328;53.928;18.522;2023-03-14T05:53:11;7.25;;;3.90;;
22320;SDS011;11328;53.928;18.522;2023-03-14T05:55:39;6.75;;;3.13;;
22320;SDS011;11328;53.928;18.522;2023-03-14T05:58:06;6.10;;;3.00;;
22320;SDS011;11328;53.928;18.522;2023-03-14T06:00:33;24.45;;;12.35;;
22320;SDS011;11328;53.928;18.522;2023-03-14T06:03:00;31.70;;;15.60;;
22320;SDS011;11328;53.928;18.522;2023-03-14T06:05:27;36.25;;;18.30;;
22320;SDS011;11328;53.928;18.522;2023-03-14T06:07:54;39.10;;;17.83;;
22320;SDS011;11328;53.928;18.522;2023-03-14T06:10:20;44.53;;;19.75;;
22320;SDS011;11328;53.928;18.522;2023-03-14T06:12:47;48.53;;;22.45;;
22320;SDS011;11328;53.928;18.522;2023-03-14T06:15:14;32.38;;;15.63;;
22320;SDS011;11328;53.928;18.522;2023-03-14T06:17:41;48.67;;;24.02;;
22320;SDS011;11328;53.928;18.522;2023-03-14T06:20:08;35.08;;;16.20;;
22320;SDS011;11328;53.928;18.522;2023-03-14T06:22:37;25.40;;;12.52;;
22320;SDS011;11328;53.928;18.522;2023-03-14T06:25:04;20.85;;;10.65;;
22320;SDS011;11328;53.928;18.522;2023-03-14T06:27:33;28.45;;;14.82;;
22320;SDS011;11328;53.928;18.522;2023-03-14T06:30:00;18.58;;;9.48;;
22320;SDS011;11328;53.928;18.522;2023-03-14T06:32:27;15.07;;;7.32;;
22320;SDS011;11328;53.928;18.522;2023-03-14T06:34:54;27.33;;;13.40;;
22320;SDS011;11328;53.928;18.522;2023-03-14T06:37:27;17.45;;;8.10;;
22320;SDS011;11328;53.928;18.522;2023-03-14T06:39:55;18.05;;;8.02;;
22320;SDS011;11328;53.928;18.522;2023-03-14T06:42:22;15.05;;;6.30;;
22320;SDS011;11328;53.928;18.522;2023-03-14T06:44:49;9.98;;;4.72;;
22320;SDS011;11328;53.928;18.522;2023-03-14T06:47:16;7.50;;;3.53;;
22320;SDS011;11328;53.928;18.522;2023-03-14T06:49:42;8.48;;;3.97;;
22320;SDS011;11328;53.928;18.522;2023-03-14T06:52:09;12.48;;;6.05;;
22320;SDS011;11328;53.928;18.522;2023-03-14T06:54:36;12.07;;;6.30;;
22320;SDS011;11328;53.928;18.522;2023-03-14T06:57:03;10.75;;;4.93;;
22320;SDS011;11328;53.928;18.522;2023-03-14T06:59:30;8.75;;;3.90;;
22320;SDS011;11328;53.928;18.522;2023-03-14T07:01:57;9.18;;;5.00;;
22320;SDS011;11328;53.928;18.522;2023-03-14T07:04:24;8.75;;;4.90;;
22320;SDS011;11328;53.928;18.522;2023-03-14T07:06:51;8.13;;;4.18;;
22320;SDS011;11328;53.928;18.522;2023-03-14T07:09:17;8.77;;;4.90;;
22320;SDS011;11328;53.928;18.522;2023-03-14T07:11:44;8.95;;;4.22;;
22320;SDS011;11328;53.928;18.522;2023-03-14T07:14:11;10.52;;;4.43;;
22320;SDS011;11328;53.928;18.522;2023-03-14T07:16:38;8.48;;;4.53;;
22320;SDS011;11328;53.928;18.522;2023-03-14T07:19:05;12.13;;;6.50;;
22320;SDS011;11328;53.928;18.522;2023-03-14T07:21:32;10.07;;;5.85;;
22320;SDS011;11328;53.928;18.522;2023-03-14T07:24:00;10.07;;;6.03;;
22320;SDS011;11328;53.928;18.522;2023-03-14T07:26:28;10.40;;;5.72;;
22320;SDS011;11328;53.928;18.522;2023-03-14T07:28:55;8.82;;;4.93;;
22320;SDS011;11328;53.928;18.522;2023-03-14T07:31:22;12.07;;;5.68;;
22320;SDS011;11328;53.928;18.522;2023-03-14T07:33:49;8.77;;;4.53;;
22320;SDS011;11328;53.928;18.522;2023-03-14T07:36:17;8.95;;;4.90;;
22320;SDS011;11328;53.928;18.522;2023-03-14T07:38:44;8.52;;;4.55;;
22320;SDS011;11328;53.928;18.522;2023-03-14T07:41:11;9.65;;;5.03;;
22320;SDS011;11328;53.928;18.522;2023-03-14T07:43:37;15.80;;;10.50;;
22320;SDS011;11328;53.928;18.522;2023-03-14T07:46:04;32.15;;;21.40;;
22320;SDS011;11328;53.928;18.522;2023-03-14T07:48:32;26.88;;;19.17;;
22320;SDS011;11328;53.928;18.522;2023-03-14T07:50:59;7.75;;;4.65;;
22320;SDS011;11328;53.928;18.522;2023-03-14T07:53:26;9.05;;;4.57;;
22320;SDS011;11328;53.928;18.522;2023-03-14T07:55:53;9.45;;;5.00;;
22320;SDS011;11328;53.928;18.522;2023-03-14T07:58:21;9.18;;;4.95;;
22320;SDS011;11328;53.928;18.522;2023-03-14T08:00:49;8.18;;;4.70;;
22320;SDS011;11328;53.928;18.522;2023-03-14T08:03:17;9.10;;;5.28;;
22320;SDS011;11328;53.928;18.522;2023-03-14T08:05:47;9.73;;;5.15;;
22320;SDS011;11328;53.928;18.522;2023-03-14T08:08:15;9.77;;;5.07;;
22320;SDS011;11328;53.928;18.522;2023-03-14T08:10:43;9.32;;;4.88;;
22320;SDS011;11328;53.928;18.522;2023-03-14T08:13:10;9.68;;;5.63;;
22320;SDS011;11328;53.928;18.522;2023-03-14T08:15:37;9.90;;;5.20;;
22320;SDS011;11328;53.928;18.522;2023-03-14T08:18:04;8.05;;;4.65;;
22320;SDS011;11328;53.928;18.522;2023-03-14T08:20:32;11.18;;;5.80;;
22320;SDS011;11328;53.928;18.522;2023-03-14T08:22:59;10.20;;;4.82;;
22320;SDS011;11328;53.928;18.522;2023-03-14T08:25:28;7.75;;;4.47;;
22320;SDS011;11328;53.928;18.522;2023-03-14T08:27:55;8.07;;;4.00;;
22320;SDS011;11328;53.928;18.522;2023-03-14T08:30:23;9.45;;;4.32;;
22320;SDS011;11328;53.928;18.522;2023-03-14T08:32:50;8.27;;;4.28;;
22320;SDS011;11328;53.928;18.522;2023-03-14T08:35:18;9.23;;;4.35;;
22320;SDS011;11328;53.928;18.522;2023-03-14T08:37:45;7.30;;;4.18;;
22320;SDS011;11328;53.928;18.522;2023-03-14T08:40:12;10.38;;;4.30;;
22320;SDS011;11328;53.928;18.522;2023-03-14T08:42:41;8.80;;;4.22;;
22320;SDS011;11328;53.928;18.522;2023-03-14T08:45:08;8.95;;;4.38;;
22320;SDS011;11328;53.928;18.522;2023-03-14T08:47:39;8.35;;;4.40;;
22320;SDS011;11328;53.928;18.522;2023-03-14T08:50:06;8.82;;;4.32;;
22320;SDS011;11328;53.928;18.522;2023-03-14T08:52:35;8.45;;;4.47;;
22320;SDS011;11328;53.928;18.522;2023-03-14T08:55:04;8.50;;;4.63;;
22320;SDS011;11328;53.928;18.522;2023-03-14T08:57:31;8.07;;;4.40;;
22320;SDS011;11328;53.928;18.522;2023-03-14T08:59:58;10.18;;;4.50;;
22320;SDS011;11328;53.928;18.522;2023-03-14T09:02:25;9.65;;;4.40;;
22320;SDS011;11328;53.928;18.522;2023-03-14T09:04:53;9.45;;;3.88;;
22320;SDS011;11328;53.928;18.522;2023-03-14T09:07:20;17.08;;;9.50;;
22320;SDS011;11328;53.928;18.522;2023-03-14T09:09:46;11.48;;;5.55;;
22320;SDS011;11328;53.928;18.522;2023-03-14T09:12:14;8.05;;;4.30;;
22320;SDS011;11328;53.928;18.522;2023-03-14T09:14:41;7.50;;;4.15;;
22320;SDS011;11328;53.928;18.522;2023-03-14T09:17:08;10.77;;;4.63;;
22320;SDS011;11328;53.928;18.522;2023-03-14T09:19:35;12.75;;;5.93;;
22320;SDS011;11328;53.928;18.522;2023-03-14T09:22:02;10.80;;;4.78;;
22320;SDS011;11328;53.928;18.522;2023-03-14T09:24:29;11.40;;;5.40;;
22320;SDS011;11328;53.928;18.522;2023-03-14T09:26:56;9.90;;;4.50;;
22320;SDS011;11328;53.928;18.522;2023-03-14T09:29:24;10.20;;;5.18;;
22320;SDS011;11328;53.928;18.522;2023-03-14T09:31:52;12.07;;;5.05;;
22320;SDS011;11328;53.928;18.522;2023-03-14T09:34:19;11.15;;;4.72;;
22320;SDS011;11328;53.928;18.522;2023-03-14T09:36:46;7.22;;;4.10;;
22320;SDS011;11328;53.928;18.522;2023-03-14T09:39:13;10.07;;;4.72;;
22320;SDS011;11328;53.928;18.522;2023-03-14T09:41:44;12.43;;;7.28;;
22320;SDS011;11328;53.928;18.522;2023-03-14T09:44:23;18.38;;;8.65;;
22320;SDS011;11328;53.928;18.522;2023-03-14T09:46:57;23.75;;;12.20;;
22320;SDS011;11328;53.928;18.522;2023-03-14T09:49:32;10.75;;;5.85;;
22320;SDS011;11328;53.928;18.522;2023-03-14T09:52:13;8.93;;;4.55;;
22320;SDS011;11328;53.928;18.522;2023-03-14T09:54:59;9.93;;;4.88;;
22320;SDS011;11328;53.928;18.522;2023-03-14T09:57:36;11.57;;;5.47;;
22320;SDS011;11328;53.928;18.522;2023-03-14T10:00:10;13.18;;;5.35;;
22320;SDS011;11328;53.928;18.522;2023-03-14T10:02:56;10.65;;;4.88;;
22320;SDS011;11328;53.928;18.522;2023-03-14T10:05:46;8.98;;;4.90;;
22320;SDS011;11328;53.928;18.522;2023-03-14T10:08:13;9.80;;;5.22;;
22320;SDS011;11328;53.928;18.522;2023-03-14T10:10:41;9.95;;;4.82;;
22320;SDS011;11328;53.928;18.522;2023-03-14T10:13:24;12.23;;;5.00;;
22320;SDS011;11328;53.928;18.522;2023-03-14T10:15:55;11.90;;;5.40;;
22320;SDS011;11328;53.928;18.522;2023-03-14T10:18:32;8.93;;;5.45;;
22320;SDS011;11328;53.928;18.522;2023-03-14T10:21:04;10.27;;;5.30;;
22320;SDS011;11328;53.928;18.522;2023-03-14T10:23:48;10.80;;;5.13;;
22320;SDS011;11328;53.928;18.522;2023-03-14T10:26:16;10.85;;;5.70;;
22320;SDS011;11328;53.928;18.522;2023-03-14T10:28:51;11.18;;;5.53;;
22320;SDS011;11328;53.928;18.522;2023-03-14T10:31:26;12.23;;;6.00;;
22320;SDS011;11328;53.928;18.522;2023-03-14T10:34:01;9.85;;;5.90;;
22320;SDS011;11328;53.928;18.522;2023-03-14T10:36:31;11.80;;;5.57;;
22320;SDS011;11328;53.928;18.522;2023-03-14T10:39:25;9.52;;;4.88;;
22320;SDS011;11328;53.928;18.522;2023-03-14T10:41:48;8.95;;;5.13;;
22320;SDS011;11328;53.928;18.522;2023-03-14T10:44:23;8.82;;;5.13;;
22320;SDS011;11328;53.928;18.522;2023-03-14T10:47:01;9.15;;;4.88;;
22320;SDS011;11328;53.928;18.522;2023-03-14T10:49:32;9.05;;;5.03;;
22320;SDS011;11328;53.928;18.522;2023-03-14T10:54:41;10.43;;;4.72;;
22320;SDS011;11328;53.928;18.522;2023-03-14T10:57:14;8.10;;;4.55;;
22320;SDS011;11328;53.928;18.522;2023-03-14T10:59:41;10.35;;;5.00;;
22320;SDS011;11328;53.928;18.522;2023-03-14T11:02:15;8.95;;;5.03;;
22320;SDS011;11328;53.928;18.522;2023-03-14T11:07:44;9.48;;;4.63;;
22320;SDS011;11328;53.928;18.522;2023-03-14T11:10:14;13.35;;;5.05;;
22320;SDS011;11328;53.928;18.522;2023-03-14T11:13:15;8.50;;;4.50;;
22320;SDS011;11328;53.928;18.522;2023-03-14T11:16:20;8.90;;;4.25;;
22320;SDS011;11328;53.928;18.522;2023-03-14T11:19:20;9.00;;;4.72;;
22320;SDS011;11328;53.928;18.522;2023-03-14T11:22:24;8.43;;;4.70;;
22320;SDS011;11328;53.928;18.522;2023-03-14T11:28:18;9.07;;;4.60;;
22320;SDS011;11328;53.928;18.522;2023-03-14T11:36:30;8.18;;;4.25;;
22320;SDS011;11328;53.928;18.522;2023-03-14T11:39:38;10.18;;;4.28;;
22320;SDS011;11328;53.928;18.522;2023-03-14T11:42:11;8.35;;;4.00;;
22320;SDS011;11328;53.928;18.522;2023-03-14T11:44:44;8.82;;;3.90;;
22320;SDS011;11328;53.928;18.522;2023-03-14T11:47:15;7.43;;;3.88;;
22320;SDS011;11328;53.928;18.522;2023-03-14T11:49:58;8.20;;;3.80;;
22320;SDS011;11328;53.928;18.522;2023-03-14T11:52:48;8.48;;;3.72;;
22320;SDS011;11328;53.928;18.522;2023-03-14T11:55:24;8.65;;;3.72;;
22320;SDS011;11328;53.928;18.522;2023-03-14T11:58:45;6.90;;;3.33;;
22320;SDS011;11328;53.928;18.522;2023-03-14T12:00:54;8.05;;;3.95;;
22320;SDS011;11328;53.928;18.522;2023-03-14T12:03:26;8.98;;;3.80;;
22320;SDS011;11328;53.928;18.522;2023-03-14T12:06:32;8.13;;;4.00;;
22320;SDS011;11328;53.928;18.522;2023-03-14T12:09:10;8.52;;;3.70;;
22320;SDS011;11328;53.928;18.522;2023-03-14T12:11:44;7.45;;;3.40;;
22320;SDS011;11328;53.928;18.522;2023-03-14T12:14:25;9.07;;;3.70;;
22320;SDS011;11328;53.928;18.522;2023-03-14T12:20:01;7.38;;;3.42;;
22320;SDS011;11328;53.928;18.522;2023-03-14T12:22:33;6.85;;;3.30;;
22320;SDS011;11328;53.928;18.522;2023-03-14T12:27:46;10.25;;;3.08;;
22320;SDS011;11328;53.928;18.522;2023-03-14T12:35:37;7.82;;;3.90;;
22320;SDS011;11328;53.928;18.522;2023-03-14T12:43:41;9.55;;;3.75;;
22320;SDS011;11328;53.928;18.522;2023-03-14T12:48:45;8.88;;;3.67;;
22320;SDS011;11328;53.928;18.522;2023-03-14T12:51:38;8.85;;;3.30;;
22320;SDS011;11328;53.928;18.522;2023-03-14T12:54:19;7.78;;;3.10;;
22320;SDS011;11328;53.928;18.522;2023-03-14T12:59:56;7.25;;;3.10;;
22320;SDS011;11328;53.928;18.522;2023-03-14T13:02:42;8.05;;;2.80;;
22320;SDS011;11328;53.928;18.522;2023-03-14T13:05:23;7.15;;;2.47;;
22320;SDS011;11328;53.928;18.522;2023-03-14T13:10:30;7.20;;;3.25;;
22320;SDS011;11328;53.928;18.522;2023-03-14T13:13:15;7.78;;;3.15;;
22320;SDS011;11328;53.928;18.522;2023-03-14T13:15:49;8.23;;;3.40;;
22320;SDS011;11328;53.928;18.522;2023-03-14T13:18:34;6.90;;;3.17;;
22320;SDS011;11328;53.928;18.522;2023-03-14T13:21:06;7.53;;;3.00;;
22320;SDS011;11328;53.928;18.522;2023-03-14T13:23:39;7.93;;;3.42;;
22320;SDS011;11328;53.928;18.522;2023-03-14T13:26:14;10.15;;;3.10;;
22320;SDS011;11328;53.928;18.522;2023-03-14T13:28:41;6.45;;;2.90;;
22320;SDS011;11328;53.928;18.522;2023-03-14T13:31:18;7.80;;;3.33;;
22320;SDS011;11328;53.928;18.522;2023-03-14T13:33:59;10.82;;;3.83;;
22320;SDS011;11328;53.928;18.522;2023-03-14T13:36:36;13.82;;;6.05;;
22320;SDS011;11328;53.928;18.522;2023-03-14T13:39:03;10.90;;;4.20;;
22320;SDS011;11328;53.928;18.522;2023-03-14T13:41:39;16.92;;;6.07;;
22320;SDS011;11328;53.928;18.522;2023-03-14T13:44:09;35.25;;;20.25;;
22320;SDS011;11328;53.928;18.522;2023-03-14T13:46:43;15.50;;;6.07;;
22320;SDS011;11328;53.928;18.522;2023-03-14T13:49:11;12.07;;;5.00;;
22320;SDS011;11328;53.928;18.522;2023-03-14T13:51:51;8.63;;;3.70;;
22320;SDS011;11328;53.928;18.522;2023-03-14T13:54:19;14.52;;;5.15;;
22320;SDS011;11328;53.928;18.522;2023-03-14T13:56:48;11.98;;;4.28;;
22320;SDS011;11328;53.928;18.522;2023-03-14T13:59:32;14.63;;;5.35;;
22320;SDS011;11328;53.928;18.522;2023-03-14T14:02:03;10.40;;;4.18;;
22320;SDS011;11328;53.928;18.522;2023-03-14T14:04:43;9.85;;;3.28;;
22320;SDS011;11328;53.928;18.522;2023-03-14T14:07:13;15.70;;;4.90;;
22320;SDS011;11328;53.928;18.522;2023-03-14T14:09:48;18.45;;;6.65;;
22320;SDS011;11328;53.928;18.522;2023-03-14T14:12:23;16.48;;;6.00;;
22320;SDS011;11328;53.928;18.522;2023-03-14T14:17:47;7.15;;;2.50;;
22320;SDS011;11328;53.928;18.522;2023-03-14T14:20:33;11.85;;;4.00;;
22320;SDS011;11328;53.928;18.522;2023-03-14T14:23:14;7.30;;;2.47;;
22320;SDS011;11328;53.928;18.522;2023-03-14T14:25:51;12.88;;;4.30;;
22320;SDS011;11328;53.928;18.522;2023-03-14T14:34:02;13.52;;;4.25;;
22320;SDS011;11328;53.928;18.522;2023-03-14T14:36:37;16.63;;;5.88;;
22320;SDS011;11328;53.928;18.522;2023-03-14T14:39:23;9.90;;;3.17;;
22320;SDS011;11328;53.928;18.522;2023-03-14T14:41:52;17.42;;;5.38;;
22320;SDS011;11328;53.928;18.522;2023-03-14T14:44:32;9.07;;;3.05;;
22320;SDS011;11328;53.928;18.522;2023-03-14T14:47:02;21.73;;;7.20;;
22320;SDS011;11328;53.928;18.522;2023-03-14T14:49:31;11.57;;;3.90;;
22320;SDS011;11328;53.928;18.522;2023-03-14T14:52:04;35.15;;;16.60;;
22320;SDS011;11328;53.928;18.522;2023-03-14T14:54:46;18.67;;;6.38;;
22320;SDS011;11328;53.928;18.522;2023-03-14T14:57:41;18.52;;;6.05;;
22320;SDS011;11328;53.928;18.522;2023-03-14T15:00:26;16.52;;;7.07;;
22320;SDS011;11328;53.928;18.522;2023-03-14T15:02:54;18.05;;;6.75;;
22320;SDS011;11328;53.928;18.522;2023-03-14T15:07:56;12.50;;;5.03;;
22320;SDS011;11328;53.928;18.522;2023-03-14T15:10:24;9.88;;;3.42;;
22320;SDS011;11328;53.928;18.522;2023-03-14T15:12:52;9.88;;;2.97;;
22320;SDS011;11328;53.928;18.522;2023-03-14T15:15:19;11.75;;;4.85;;
22320;SDS011;11328;53.928;18.522;2023-03-14T15:17:49;10.85;;;4.15;;
22320;SDS011;11328;53.928;18.522;2023-03-14T15:20:16;16.15;;;6.68;;
22320;SDS011;11328;53.928;18.522;2023-03-14T15:22:45;16.80;;;6.95;;
22320;SDS011;11328;53.928;18.522;2023-03-14T15:25:13;19.75;;;7.90;;
22320;SDS011;11328;53.928;18.522;2023-03-14T15:28:00;19.08;;;7.30;;
22320;SDS011;11328;53.928;18.522;2023-03-14T15:30:27;40.72;;;18.33;;
22320;SDS011;11328;53.928;18.522;2023-03-14T15:32:54;12.88;;;5.63;;
22320;SDS011;11328;53.928;18.522;2023-03-14T15:35:21;29.25;;;14.05;;
22320;SDS011;11328;53.928;18.522;2023-03-14T15:37:48;31.48;;;13.90;;
22320;SDS011;11328;53.928;18.522;2023-03-14T15:40:15;23.40;;;10.52;;
22320;SDS011;11328;53.928;18.522;2023-03-14T15:42:42;27.52;;;13.65;;
22320;SDS011;11328;53.928;18.522;2023-03-14T15:45:09;19.27;;;7.85;;
22320;SDS011;11328;53.928;18.522;2023-03-14T15:47:36;18.25;;;6.80;;
22320;SDS011;11328;53.928;18.522;2023-03-14T15:50:08;23.02;;;8.55;;
22320;SDS011;11328;53.928;18.522;2023-03-14T15:55:03;33.97;;;12.48;;